Aeroporto :
LOGIN :

Iscrizione | Disclaimer

   EN    FR    IT 

 










Sommario :    VFR   VFR Marginale   IFR   IFR Intensivo   IFR Molto Intensivo
Visibilità : 
Base nubi : 
>= 8 km
>= 3000ft
5 / 8 km
1000 / 3000 ft
1500m / 5 km
500 / 1000 ft
800 / 1500m
200 / 500 ft
< 800m
< 200 ft
Simboli :   Temporali  Nebbia  Neve Forte  Precipitazioni Forti  Vento > 20 kt
SIGMETs :   Varie  Temporali  Ghiacco  Turbolenza  Onda orograficha  Ceneri Vulcaniche






- Altitudine del aeroporto : -11 ft
- Codice IATA : AMS


EHAM - Amsterdam Schiphol

ULTIMO METAR :
  • 070055Z 27015KT 9999 FEW017 SCT030 10/08 Q1004 NOSIG

METARs OBSOLETI :
  • 070025Z 27016KT 240V300 9999 FEW015 SCT018 10/08 Q1004 NOSIG
  • 062355Z 28016KT 9999 FEW013 SCT017 10/08 Q1003 NOSIG
  • 062325Z 28018KT 9999 FEW015 BKN017 10/08 Q1003 BECMG SCT017
  • 062255Z 28019KT 9999 FEW014 BKN017 10/08 Q1002 BECMG SCT017
  • 062225Z 26020KT 230V290 9999 FEW005 SCT007 BKN016 09/08 Q1001 RERA NOSIG

TAF TAF EHAM
Valido dal 07 a 00 ore il 08 a 06 ore UTC


062315Z 0700/0806 27014KT 9999 SCT018
PROB30
TEMPO 0700/0715 7000 -SHRA FEW015TCU BKN018
BECMG 0714/0717 23009KT
BECMG 0721/0724 20014KT
BECMG 0803/0806 21021G32KT 7000 -RA BKN014



MetMap, La meteo Aeronautica in un colpo d'occhio ! - Copyright ORBIFLY Dicembre 2007 - Disclaimer

ORBIFLY MET'MAP TEAM :

Programmazione e sviluppo : Alexandra Zaïnal
Concezione : Baudouin d'Aumeries
Aiuto per la programmazione : Marc-Olivier Méhu
Supporto tecnico e logistico : Manuel Goepfert
Aiuto per la traduzione : Arnaldo La Scala

Contatto : metmap@orbifly.com




FONTI E CREDITI :

   NOAA